sensor_id;sensor_type;location;lat;lon;timestamp;temperature;humidity
28947;DHT22;16052;50.930;5.326;2023-05-29T00:00:14;18.60;10.60
28947;DHT22;16052;50.930;5.326;2023-05-29T00:02:44;18.50;15.80
28947;DHT22;16052;50.930;5.326;2023-05-29T00:05:11;18.40;18.00
28947;DHT22;16052;50.930;5.326;2023-05-29T00:07:38;18.40;18.30
28947;DHT22;16052;50.930;5.326;2023-05-29T00:10:05;18.50;14.60
28947;DHT22;16052;50.930;5.326;2023-05-29T00:12:32;18.60;13.10
28947;DHT22;16052;50.930;5.326;2023-05-29T00:14:59;18.70;11.40
28947;DHT22;16052;50.930;5.326;2023-05-29T00:17:25;18.60;11.30
28947;DHT22;16052;50.930;5.326;2023-05-29T00:19:51;18.60;11.50
28947;DHT22;16052;50.930;5.326;2023-05-29T00:22:17;18.50;12.90
28947;DHT22;16052;50.930;5.326;2023-05-29T00:24:42;18.40;14.30
28947;DHT22;16052;50.930;5.326;2023-05-29T00:27:09;18.30;19.50
28947;DHT22;16052;50.930;5.326;2023-05-29T00:29:36;18.30;19.20
28947;DHT22;16052;50.930;5.326;2023-05-29T00:32:02;18.30;19.80
28947;DHT22;16052;50.930;5.326;2023-05-29T00:34:28;18.40;16.30
28947;DHT22;16052;50.930;5.326;2023-05-29T00:36:53;18.10;21.40
28947;DHT22;16052;50.930;5.326;2023-05-29T00:39:21;18.10;22.50
28947;DHT22;16052;50.930;5.326;2023-05-29T00:41:48;18.00;25.00
28947;DHT22;16052;50.930;5.326;2023-05-29T00:44:18;17.80;28.60
28947;DHT22;16052;50.930;5.326;2023-05-29T00:46:49;17.80;28.00
28947;DHT22;16052;50.930;5.326;2023-05-29T00:49:17;17.80;29.20
28947;DHT22;16052;50.930;5.326;2023-05-29T00:51:43;17.80;29.80
28947;DHT22;16052;50.930;5.326;2023-05-29T00:54:12;17.80;28.70
28947;DHT22;16052;50.930;5.326;2023-05-29T00:56:41;17.60;33.90
28947;DHT22;16052;50.930;5.326;2023-05-29T00:59:09;17.70;31.70
28947;DHT22;16052;50.930;5.326;2023-05-29T01:01:36;17.70;31.00
28947;DHT22;16052;50.930;5.326;2023-05-29T01:04:03;17.60;32.00
28947;DHT22;16052;50.930;5.326;2023-05-29T01:06:35;17.60;32.50
28947;DHT22;16052;50.930;5.326;2023-05-29T01:09:01;17.70;31.90
28947;DHT22;16052;50.930;5.326;2023-05-29T01:11:49;17.70;30.80
28947;DHT22;16052;50.930;5.326;2023-05-29T01:17:28;17.50;37.90
28947;DHT22;16052;50.930;5.326;2023-05-29T01:23:40;17.20;45.40
28947;DHT22;16052;50.930;5.326;2023-05-29T01:28:57;17.30;44.00
28947;DHT22;16052;50.930;5.326;2023-05-29T01:31:26;17.20;45.00
28947;DHT22;16052;50.930;5.326;2023-05-29T01:36:19;17.10;50.70
28947;DHT22;16052;50.930;5.326;2023-05-29T01:38:45;17.00;53.80
28947;DHT22;16052;50.930;5.326;2023-05-29T01:41:11;17.00;55.40
28947;DHT22;16052;50.930;5.326;2023-05-29T01:43:37;16.90;57.70
28947;DHT22;16052;50.930;5.326;2023-05-29T01:46:03;16.90;57.80
28947;DHT22;16052;50.930;5.326;2023-05-29T01:48:29;16.80;60.70
28947;DHT22;16052;50.930;5.326;2023-05-29T01:50:56;16.80;62.40
28947;DHT22;16052;50.930;5.326;2023-05-29T01:53:23;16.80;60.80
28947;DHT22;16052;50.930;5.326;2023-05-29T01:55:49;16.80;59.70
28947;DHT22;16052;50.930;5.326;2023-05-29T01:58:17;16.50;66.00
28947;DHT22;16052;50.930;5.326;2023-05-29T02:00:44;16.40;71.10
28947;DHT22;16052;50.930;5.326;2023-05-29T02:03:10;16.40;70.90
28947;DHT22;16052;50.930;5.326;2023-05-29T02:05:35;16.40;71.10
28947;DHT22;16052;50.930;5.326;2023-05-29T02:08:01;16.40;70.80
28947;DHT22;16052;50.930;5.326;2023-05-29T02:10:27;16.40;71.30
28947;DHT22;16052;50.930;5.326;2023-05-29T02:12:52;16.40;72.70
28947;DHT22;16052;50.930;5.326;2023-05-29T02:15:18;16.30;71.90
28947;DHT22;16052;50.930;5.326;2023-05-29T02:17:44;16.10;76.00
28947;DHT22;16052;50.930;5.326;2023-05-29T02:20:10;16.10;77.10
28947;DHT22;16052;50.930;5.326;2023-05-29T02:22:36;16.10;77.60
28947;DHT22;16052;50.930;5.326;2023-05-29T02:25:02;16.10;76.30
28947;DHT22;16052;50.930;5.326;2023-05-29T02:27:27;16.00;74.80
28947;DHT22;16052;50.930;5.326;2023-05-29T02:29:53;16.10;73.10
28947;DHT22;16052;50.930;5.326;2023-05-29T02:32:19;15.90;74.90
28947;DHT22;16052;50.930;5.326;2023-05-29T02:34:44;15.80;77.90
28947;DHT22;16052;50.930;5.326;2023-05-29T02:37:10;15.80;77.10
28947;DHT22;16052;50.930;5.326;2023-05-29T02:39:36;15.70;78.20
28947;DHT22;16052;50.930;5.326;2023-05-29T02:42:02;15.70;81.30
28947;DHT22;16052;50.930;5.326;2023-05-29T02:44:28;15.80;78.10
28947;DHT22;16052;50.930;5.326;2023-05-29T02:46:53;15.70;74.80
28947;DHT22;16052;50.930;5.326;2023-05-29T02:49:19;15.70;76.40
28947;DHT22;16052;50.930;5.326;2023-05-29T02:51:44;15.70;74.80
28947;DHT22;16052;50.930;5.326;2023-05-29T02:54:10;15.70;72.20
28947;DHT22;16052;50.930;5.326;2023-05-29T02:56:37;15.60;71.80
28947;DHT22;16052;50.930;5.326;2023-05-29T02:59:03;15.50;74.90
28947;DHT22;16052;50.930;5.326;2023-05-29T03:01:28;15.50;68.70
28947;DHT22;16052;50.930;5.326;2023-05-29T03:03:54;15.50;68.60
28947;DHT22;16052;50.930;5.326;2023-05-29T03:06:21;15.60;65.10
28947;DHT22;16052;50.930;5.326;2023-05-29T03:08:47;15.70;62.30
28947;DHT22;16052;50.930;5.326;2023-05-29T03:11:13;15.70;59.20
28947;DHT22;16052;50.930;5.326;2023-05-29T03:13:40;15.70;58.80
28947;DHT22;16052;50.930;5.326;2023-05-29T03:16:06;15.50;58.40
28947;DHT22;16052;50.930;5.326;2023-05-29T03:18:33;15.40;57.70
28947;DHT22;16052;50.930;5.326;2023-05-29T03:20:59;15.30;59.70
28947;DHT22;16052;50.930;5.326;2023-05-29T03:23:25;15.30;58.90
28947;DHT22;16052;50.930;5.326;2023-05-29T03:25:51;15.30;56.70
28947;DHT22;16052;50.930;5.326;2023-05-29T03:28:16;15.10;59.60
28947;DHT22;16052;50.930;5.326;2023-05-29T03:30:42;15.10;58.90
28947;DHT22;16052;50.930;5.326;2023-05-29T03:33:08;15.20;56.50
28947;DHT22;16052;50.930;5.326;2023-05-29T03:35:33;15.20;52.30
28947;DHT22;16052;50.930;5.326;2023-05-29T03:37:59;15.10;52.90
28947;DHT22;16052;50.930;5.326;2023-05-29T03:40:25;15.10;51.20
28947;DHT22;16052;50.930;5.326;2023-05-29T03:42:50;15.10;51.20
28947;DHT22;16052;50.930;5.326;2023-05-29T03:45:16;15.10;48.80
28947;DHT22;16052;50.930;5.326;2023-05-29T03:47:41;15.10;47.80
28947;DHT22;16052;50.930;5.326;2023-05-29T03:50:07;15.10;46.20
28947;DHT22;16052;50.930;5.326;2023-05-29T03:52:33;15.30;43.80
28947;DHT22;16052;50.930;5.326;2023-05-29T03:54:59;15.30;39.20
28947;DHT22;16052;50.930;5.326;2023-05-29T03:57:25;15.30;36.50
28947;DHT22;16052;50.930;5.326;2023-05-29T03:59:51;15.20;38.10
28947;DHT22;16052;50.930;5.326;2023-05-29T04:02:17;15.00;41.40
28947;DHT22;16052;50.930;5.326;2023-05-29T04:04:42;15.00;42.10
28947;DHT22;16052;50.930;5.326;2023-05-29T04:07:09;14.90;41.60
28947;DHT22;16052;50.930;5.326;2023-05-29T04:09:35;14.90;40.40
28947;DHT22;16052;50.930;5.326;2023-05-29T04:12:01;15.00;38.20
28947;DHT22;16052;50.930;5.326;2023-05-29T04:14:31;15.00;35.30
28947;DHT22;16052;50.930;5.326;2023-05-29T04:16:56;15.00;33.30
28947;DHT22;16052;50.930;5.326;2023-05-29T04:19:22;15.00;36.60
28947;DHT22;16052;50.930;5.326;2023-05-29T04:21:48;15.00;34.70
28947;DHT22;16052;50.930;5.326;2023-05-29T04:24:14;14.90;33.80
28947;DHT22;16052;50.930;5.326;2023-05-29T04:26:40;14.80;36.90
28947;DHT22;16052;50.930;5.326;2023-05-29T04:29:08;14.80;35.50
28947;DHT22;16052;50.930;5.326;2023-05-29T04:31:34;14.70;36.70
28947;DHT22;16052;50.930;5.326;2023-05-29T04:34:02;14.70;37.20
28947;DHT22;16052;50.930;5.326;2023-05-29T04:36:30;14.80;34.50
28947;DHT22;16052;50.930;5.326;2023-05-29T04:38:58;14.70;33.10
28947;DHT22;16052;50.930;5.326;2023-05-29T04:41:26;14.60;37.40
28947;DHT22;16052;50.930;5.326;2023-05-29T04:43:56;14.60;37.20
28947;DHT22;16052;50.930;5.326;2023-05-29T04:46:23;14.50;38.40
28947;DHT22;16052;50.930;5.326;2023-05-29T04:48:49;14.50;39.60
28947;DHT22;16052;50.930;5.326;2023-05-29T04:51:19;14.60;37.00
28947;DHT22;16052;50.930;5.326;2023-05-29T04:53:45;14.60;34.20
28947;DHT22;16052;50.930;5.326;2023-05-29T04:56:12;14.60;36.40
28947;DHT22;16052;50.930;5.326;2023-05-29T04:58:38;14.60;36.90
28947;DHT22;16052;50.930;5.326;2023-05-29T05:01:04;14.60;38.00
28947;DHT22;16052;50.930;5.326;2023-05-29T05:03:30;14.40;40.20
28947;DHT22;16052;50.930;5.326;2023-05-29T05:05:56;14.30;43.50
28947;DHT22;16052;50.930;5.326;2023-05-29T05:08:23;14.30;44.80
28947;DHT22;16052;50.930;5.326;2023-05-29T05:10:48;14.40;41.10
28947;DHT22;16052;50.930;5.326;2023-05-29T05:13:14;14.50;40.90
28947;DHT22;16052;50.930;5.326;2023-05-29T05:15:39;14.60;38.70
28947;DHT22;16052;50.930;5.326;2023-05-29T05:18:05;14.60;38.70
28947;DHT22;16052;50.930;5.326;2023-05-29T05:20:31;14.70;36.40
28947;DHT22;16052;50.930;5.326;2023-05-29T05:22:57;14.80;35.90
28947;DHT22;16052;50.930;5.326;2023-05-29T05:25:22;14.80;33.70
28947;DHT22;16052;50.930;5.326;2023-05-29T05:27:48;14.70;36.60
28947;DHT22;16052;50.930;5.326;2023-05-29T05:30:14;14.80;37.90
28947;DHT22;16052;50.930;5.326;2023-05-29T05:32:39;14.90;33.10
28947;DHT22;16052;50.930;5.326;2023-05-29T05:35:05;14.90;34.70
28947;DHT22;16052;50.930;5.326;2023-05-29T05:37:31;14.90;35.30
28947;DHT22;16052;50.930;5.326;2023-05-29T05:39:56;15.00;32.70
28947;DHT22;16052;50.930;5.326;2023-05-29T05:42:24;15.00;33.40
28947;DHT22;16052;50.930;5.326;2023-05-29T05:44:49;14.90;35.20
28947;DHT22;16052;50.930;5.326;2023-05-29T05:47:15;15.00;34.90
28947;DHT22;16052;50.930;5.326;2023-05-29T05:49:40;14.90;36.30
28947;DHT22;16052;50.930;5.326;2023-05-29T05:52:06;15.00;37.50
28947;DHT22;16052;50.930;5.326;2023-05-29T05:54:32;14.90;37.20
28947;DHT22;16052;50.930;5.326;2023-05-29T05:56:58;15.00;37.60
28947;DHT22;16052;50.930;5.326;2023-05-29T05:59:23;15.10;31.50
28947;DHT22;16052;50.930;5.326;2023-05-29T06:01:49;15.10;34.00
28947;DHT22;16052;50.930;5.326;2023-05-29T06:04:15;15.10;35.70
28947;DHT22;16052;50.930;5.326;2023-05-29T06:06:40;15.00;35.50
28947;DHT22;16052;50.930;5.326;2023-05-29T06:09:06;15.10;35.30
28947;DHT22;16052;50.930;5.326;2023-05-29T06:11:32;15.20;34.70
28947;DHT22;16052;50.930;5.326;2023-05-29T06:13:58;15.10;36.70
28947;DHT22;16052;50.930;5.326;2023-05-29T06:16:23;15.10;31.80
28947;DHT22;16052;50.930;5.326;2023-05-29T06:18:49;15.20;31.70
28947;DHT22;16052;50.930;5.326;2023-05-29T06:21:15;15.30;32.00
28947;DHT22;16052;50.930;5.326;2023-05-29T06:23:41;15.30;31.00
28947;DHT22;16052;50.930;5.326;2023-05-29T06:26:07;15.30;28.50
28947;DHT22;16052;50.930;5.326;2023-05-29T06:28:33;15.20;32.00
28947;DHT22;16052;50.930;5.326;2023-05-29T06:30:58;15.20;31.90
28947;DHT22;16052;50.930;5.326;2023-05-29T06:33:24;15.30;33.20
28947;DHT22;16052;50.930;5.326;2023-05-29T06:35:50;15.40;27.30
28947;DHT22;16052;50.930;5.326;2023-05-29T06:38:15;15.40;24.70
28947;DHT22;16052;50.930;5.326;2023-05-29T06:40:41;15.40;23.40
28947;DHT22;16052;50.930;5.326;2023-05-29T06:43:07;15.50;24.70
28947;DHT22;16052;50.930;5.326;2023-05-29T06:45:34;15.50;24.20
28947;DHT22;16052;50.930;5.326;2023-05-29T06:48:00;15.50;24.00
28947;DHT22;16052;50.930;5.326;2023-05-29T06:50:27;15.50;24.10
28947;DHT22;16052;50.930;5.326;2023-05-29T06:52:52;15.60;24.10
28947;DHT22;16052;50.930;5.326;2023-05-29T06:55:19;15.60;23.30
28947;DHT22;16052;50.930;5.326;2023-05-29T06:57:45;15.60;24.30
28947;DHT22;16052;50.930;5.326;2023-05-29T07:00:11;15.70;25.30
28947;DHT22;16052;50.930;5.326;2023-05-29T07:02:37;15.70;25.30
28947;DHT22;16052;50.930;5.326;2023-05-29T07:05:03;15.70;23.80
28947;DHT22;16052;50.930;5.326;2023-05-29T07:07:29;15.80;23.70
28947;DHT22;16052;50.930;5.326;2023-05-29T07:09:55;15.90;23.50
28947;DHT22;16052;50.930;5.326;2023-05-29T07:12:22;15.80;23.30
28947;DHT22;16052;50.930;5.326;2023-05-29T07:14:48;15.80;24.00
28947;DHT22;16052;50.930;5.326;2023-05-29T07:17:14;15.80;22.80
28947;DHT22;16052;50.930;5.326;2023-05-29T07:19:41;15.90;25.70
28947;DHT22;16052;50.930;5.326;2023-05-29T07:22:06;16.00;21.50
28947;DHT22;16052;50.930;5.326;2023-05-29T07:24:32;16.10;20.20
28947;DHT22;16052;50.930;5.326;2023-05-29T07:26:58;16.10;21.30
28947;DHT22;16052;50.930;5.326;2023-05-29T07:29:24;16.20;18.20
28947;DHT22;16052;50.930;5.326;2023-05-29T07:31:50;16.30;13.10
28947;DHT22;16052;50.930;5.326;2023-05-29T07:34:16;16.30;16.20
28947;DHT22;16052;50.930;5.326;2023-05-29T07:39:22;16.60;12.40
28947;DHT22;16052;50.930;5.326;2023-05-29T07:41:48;16.60;12.20
28947;DHT22;16052;50.930;5.326;2023-05-29T07:44:14;16.70;8.40
28947;DHT22;16052;50.930;5.326;2023-05-29T07:46:40;16.60;11.50
28947;DHT22;16052;50.930;5.326;2023-05-29T07:49:05;16.60;12.50
28947;DHT22;16052;50.930;5.326;2023-05-29T07:51:31;16.60;14.30
28947;DHT22;16052;50.930;5.326;2023-05-29T07:53:57;16.50;15.20
28947;DHT22;16052;50.930;5.326;2023-05-29T07:56:23;16.60;15.60
28947;DHT22;16052;50.930;5.326;2023-05-29T07:58:48;16.80;12.80
28947;DHT22;16052;50.930;5.326;2023-05-29T08:01:14;16.90;9.30
28947;DHT22;16052;50.930;5.326;2023-05-29T08:03:41;16.90;10.70
28947;DHT22;16052;50.930;5.326;2023-05-29T08:06:08;17.00;5.30
28947;DHT22;16052;50.930;5.326;2023-05-29T08:08:34;17.10;1.70
28947;DHT22;16052;50.930;5.326;2023-05-29T08:11:00;17.30;1.00
28947;DHT22;16052;50.930;5.326;2023-05-29T08:13:25;17.30;1.00
28947;DHT22;16052;50.930;5.326;2023-05-29T08:15:52;17.20;1.00
28947;DHT22;16052;50.930;5.326;2023-05-29T08:18:18;17.20;1.00
28947;DHT22;16052;50.930;5.326;2023-05-29T08:20:44;17.20;1.00
28947;DHT22;16052;50.930;5.326;2023-05-29T08:23:10;17.20;1.00
28947;DHT22;16052;50.930;5.326;2023-05-29T08:25:36;17.30;3.50
28947;DHT22;16052;50.930;5.326;2023-05-29T08:28:01;17.30;1.00
28947;DHT22;16052;50.930;5.326;2023-05-29T08:30:27;17.20;1.00
28947;DHT22;16052;50.930;5.326;2023-05-29T08:32:53;17.20;1.00
28947;DHT22;16052;50.930;5.326;2023-05-29T08:35:18;17.40;1.00
28947;DHT22;16052;50.930;5.326;2023-05-29T08:37:44;17.40;1.00
28947;DHT22;16052;50.930;5.326;2023-05-29T08:40:10;17.40;1.00
28947;DHT22;16052;50.930;5.326;2023-05-29T08:42:44;17.40;1.00
28947;DHT22;16052;50.930;5.326;2023-05-29T08:45:13;17.50;1.00
28947;DHT22;16052;50.930;5.326;2023-05-29T08:47:40;17.60;1.00
28947;DHT22;16052;50.930;5.326;2023-05-29T08:50:07;17.70;1.00
28947;DHT22;16052;50.930;5.326;2023-05-29T08:52:34;17.90;1.00
28947;DHT22;16052;50.930;5.326;2023-05-29T08:55:03;18.00;1.00
28947;DHT22;16052;50.930;5.326;2023-05-29T08:57:30;18.10;1.00
28947;DHT22;16052;50.930;5.326;2023-05-29T08:59:57;18.00;1.00
28947;DHT22;16052;50.930;5.326;2023-05-29T09:02:23;18.00;1.00
28947;DHT22;16052;50.930;5.326;2023-05-29T09:04:48;18.10;1.00
28947;DHT22;16052;50.930;5.326;2023-05-29T09:07:17;18.10;1.00
28947;DHT22;16052;50.930;5.326;2023-05-29T09:09:45;18.20;1.00
28947;DHT22;16052;50.930;5.326;2023-05-29T09:12:11;18.30;1.00
28947;DHT22;16052;50.930;5.326;2023-05-29T09:14:38;18.30;1.00
28947;DHT22;16052;50.930;5.326;2023-05-29T09:17:05;18.30;1.00
28947;DHT22;16052;50.930;5.326;2023-05-29T09:19:32;18.30;1.00
28947;DHT22;16052;50.930;5.326;2023-05-29T09:22:04;18.30;1.00
28947;DHT22;16052;50.930;5.326;2023-05-29T09:24:32;18.30;1.00
28947;DHT22;16052;50.930;5.326;2023-05-29T09:27:01;18.40;1.00
28947;DHT22;16052;50.930;5.326;2023-05-29T09:29:39;18.60;1.00
28947;DHT22;16052;50.930;5.326;2023-05-29T09:32:23;18.70;1.00
28947;DHT22;16052;50.930;5.326;2023-05-29T09:35:00;18.60;1.00
28947;DHT22;16052;50.930;5.326;2023-05-29T09:37:26;18.60;1.00
28947;DHT22;16052;50.930;5.326;2023-05-29T09:39:52;18.70;1.00
28947;DHT22;16052;50.930;5.326;2023-05-29T09:42:18;18.80;1.00
28947;DHT22;16052;50.930;5.326;2023-05-29T09:44:51;18.80;1.00
28947;DHT22;16052;50.930;5.326;2023-05-29T09:47:28;18.90;1.00
28947;DHT22;16052;50.930;5.326;2023-05-29T09:50:00;18.90;1.00
28947;DHT22;16052;50.930;5.326;2023-05-29T09:52:29;19.10;1.00
28947;DHT22;16052;50.930;5.326;2023-05-29T09:54:55;19.20;1.00
28947;DHT22;16052;50.930;5.326;2023-05-29T09:57:23;19.30;1.00
28947;DHT22;16052;50.930;5.326;2023-05-29T09:59:50;19.20;1.00
28947;DHT22;16052;50.930;5.326;2023-05-29T10:02:18;19.30;1.00
28947;DHT22;16052;50.930;5.326;2023-05-29T10:04:44;19.40;1.00
28947;DHT22;16052;50.930;5.326;2023-05-29T10:09:53;19.50;1.00
28947;DHT22;16052;50.930;5.326;2023-05-29T10:12:21;19.50;1.00
28947;DHT22;16052;50.930;5.326;2023-05-29T10:14:49;19.60;1.00
28947;DHT22;16052;50.930;5.326;2023-05-29T10:17:18;19.50;1.00
28947;DHT22;16052;50.930;5.326;2023-05-29T10:19:45;19.60;1.00
28947;DHT22;16052;50.930;5.326;2023-05-29T10:22:14;19.70;1.00
28947;DHT22;16052;50.930;5.326;2023-05-29T10:24:43;19.70;1.00
28947;DHT22;16052;50.930;5.326;2023-05-29T10:27:11;19.80;1.00
28947;DHT22;16052;50.930;5.326;2023-05-29T10:36:01;20.10;1.00
28947;DHT22;16052;50.930;5.326;2023-05-29T10:38:13;20.20;1.00
28947;DHT22;16052;50.930;5.326;2023-05-29T10:40:42;20.40;1.00
28947;DHT22;16052;50.930;5.326;2023-05-29T10:43:08;20.40;1.00
28947;DHT22;16052;50.930;5.326;2023-05-29T10:53:15;20.30;1.00
28947;DHT22;16052;50.930;5.326;2023-05-29T10:55:42;20.30;1.00
28947;DHT22;16052;50.930;5.326;2023-05-29T10:58:12;20.30;1.00
28947;DHT22;16052;50.930;5.326;2023-05-29T11:00:41;20.50;1.00
28947;DHT22;16052;50.930;5.326;2023-05-29T11:03:10;20.70;1.00
28947;DHT22;16052;50.930;5.326;2023-05-29T11:08:46;20.90;1.00
28947;DHT22;16052;50.930;5.326;2023-05-29T11:11:14;21.00;1.00
28947;DHT22;16052;50.930;5.326;2023-05-29T11:13:39;20.90;1.00
28947;DHT22;16052;50.930;5.326;2023-05-29T11:16:19;21.10;1.00
28947;DHT22;16052;50.930;5.326;2023-05-29T11:18:46;21.10;1.00
28947;DHT22;16052;50.930;5.326;2023-05-29T11:24:07;21.20;1.00
28947;DHT22;16052;50.930;5.326;2023-05-29T11:26:34;21.20;1.00
28947;DHT22;16052;50.930;5.326;2023-05-29T11:29:02;21.20;1.00
28947;DHT22;16052;50.930;5.326;2023-05-29T11:31:31;21.30;1.00
28947;DHT22;16052;50.930;5.326;2023-05-29T11:33:59;21.30;1.00
28947;DHT22;16052;50.930;5.326;2023-05-29T11:36:26;21.40;1.00
28947;DHT22;16052;50.930;5.326;2023-05-29T11:38:52;21.40;1.00
28947;DHT22;16052;50.930;5.326;2023-05-29T11:41:18;21.40;1.00
28947;DHT22;16052;50.930;5.326;2023-05-29T11:43:44;21.40;1.00
28947;DHT22;16052;50.930;5.326;2023-05-29T11:46:20;21.60;1.00
28947;DHT22;16052;50.930;5.326;2023-05-29T11:48:46;21.70;1.00
28947;DHT22;16052;50.930;5.326;2023-05-29T11:51:12;21.80;1.00
28947;DHT22;16052;50.930;5.326;2023-05-29T11:53:42;21.90;1.00
28947;DHT22;16052;50.930;5.326;2023-05-29T11:56:09;21.90;99.90
28947;DHT22;16052;50.930;5.326;2023-05-29T11:58:37;21.90;1.00
28947;DHT22;16052;50.930;5.326;2023-05-29T12:01:03;21.90;1.00
28947;DHT22;16052;50.930;5.326;2023-05-29T12:03:29;22.10;1.00
28947;DHT22;16052;50.930;5.326;2023-05-29T13:29:38;21.20;1.00
28947;DHT22;16052;50.930;5.326;2023-05-29T13:32:03;21.20;1.00
28947;DHT22;16052;50.930;5.326;2023-05-29T13:34:29;21.40;1.00
28947;DHT22;16052;50.930;5.326;2023-05-29T13:36:55;21.60;1.00
28947;DHT22;16052;50.930;5.326;2023-05-29T13:39:21;21.90;1.00
28947;DHT22;16052;50.930;5.326;2023-05-29T13:41:48;22.10;99.90
28947;DHT22;16052;50.930;5.326;2023-05-29T13:44:14;22.30;99.90
28947;DHT22;16052;50.930;5.326;2023-05-29T13:46:40;22.20;99.90
28947;DHT22;16052;50.930;5.326;2023-05-29T13:49:06;22.30;99.90
28947;DHT22;16052;50.930;5.326;2023-05-29T13:51:33;22.40;99.90
28947;DHT22;16052;50.930;5.326;2023-05-29T13:53:59;22.50;99.90
28947;DHT22;16052;50.930;5.326;2023-05-29T13:56:25;22.70;99.90
28947;DHT22;16052;50.930;5.326;2023-05-29T13:58:52;22.60;99.90
28947;DHT22;16052;50.930;5.326;2023-05-29T14:01:18;22.70;99.90
28947;DHT22;16052;50.930;5.326;2023-05-29T14:03:49;22.70;99.90
28947;DHT22;16052;50.930;5.326;2023-05-29T14:06:15;22.80;99.90
28947;DHT22;16052;50.930;5.326;2023-05-29T14:08:42;22.80;99.90
28947;DHT22;16052;50.930;5.326;2023-05-29T14:11:07;22.70;99.90
28947;DHT22;16052;50.930;5.326;2023-05-29T14:13:33;22.80;99.90
28947;DHT22;16052;50.930;5.326;2023-05-29T14:16:01;22.90;99.90
28947;DHT22;16052;50.930;5.326;2023-05-29T14:18:26;23.00;99.90
28947;DHT22;16052;50.930;5.326;2023-05-29T14:20:52;23.10;99.90
28947;DHT22;16052;50.930;5.326;2023-05-29T14:23:17;23.10;99.90
28947;DHT22;16052;50.930;5.326;2023-05-29T14:25:43;23.00;98.30
28947;DHT22;16052;50.930;5.326;2023-05-29T14:28:09;23.00;95.10
28947;DHT22;16052;50.930;5.326;2023-05-29T14:30:36;23.20;99.90
28947;DHT22;16052;50.930;5.326;2023-05-29T14:33:02;23.20;95.00
28947;DHT22;16052;50.930;5.326;2023-05-29T14:35:29;23.10;61.50
28947;DHT22;16052;50.930;5.326;2023-05-29T14:37:55;23.10;30.50
28947;DHT22;16052;50.930;5.326;2023-05-29T14:40:21;23.00;1.00
28947;DHT22;16052;50.930;5.326;2023-05-29T14:42:46;23.00;1.00
28947;DHT22;16052;50.930;5.326;2023-05-29T14:45:12;23.10;1.00
28947;DHT22;16052;50.930;5.326;2023-05-29T14:47:40;23.00;1.00
28947;DHT22;16052;50.930;5.326;2023-05-29T14:50:06;22.90;6.60
28947;DHT22;16052;50.930;5.326;2023-05-29T14:52:35;22.90;1.00
28947;DHT22;16052;50.930;5.326;2023-05-29T14:55:05;22.90;7.80
28947;DHT22;16052;50.930;5.326;2023-05-29T14:57:31;22.80;1.00
28947;DHT22;16052;50.930;5.326;2023-05-29T15:00:03;22.80;1.00
28947;DHT22;16052;50.930;5.326;2023-05-29T15:02:31;22.80;1.00
28947;DHT22;16052;50.930;5.326;2023-05-29T15:04:58;22.90;1.00
28947;DHT22;16052;50.930;5.326;2023-05-29T15:07:24;22.90;1.00
28947;DHT22;16052;50.930;5.326;2023-05-29T15:09:49;22.90;1.00
28947;DHT22;16052;50.930;5.326;2023-05-29T15:12:15;22.90;1.00
28947;DHT22;16052;50.930;5.326;2023-05-29T15:14:41;22.90;1.00
28947;DHT22;16052;50.930;5.326;2023-05-29T15:17:07;22.90;1.00
28947;DHT22;16052;50.930;5.326;2023-05-29T15:19:33;22.90;1.00
28947;DHT22;16052;50.930;5.326;2023-05-29T15:21:59;22.80;1.00
28947;DHT22;16052;50.930;5.326;2023-05-29T15:24:25;22.80;1.00
28947;DHT22;16052;50.930;5.326;2023-05-29T15:26:59;22.70;1.00
28947;DHT22;16052;50.930;5.326;2023-05-29T15:29:29;22.60;1.00
28947;DHT22;16052;50.930;5.326;2023-05-29T15:32:01;22.50;1.00
28947;DHT22;16052;50.930;5.326;2023-05-29T15:34:30;22.40;1.00
28947;DHT22;16052;50.930;5.326;2023-05-29T15:36:55;22.40;1.00
28947;DHT22;16052;50.930;5.326;2023-05-29T15:39:21;22.30;1.00
28947;DHT22;16052;50.930;5.326;2023-05-29T15:41:52;22.30;1.00
28947;DHT22;16052;50.930;5.326;2023-05-29T15:44:18;22.30;1.00
28947;DHT22;16052;50.930;5.326;2023-05-29T15:46:46;22.30;1.00
28947;DHT22;16052;50.930;5.326;2023-05-29T15:49:12;22.40;1.00
28947;DHT22;16052;50.930;5.326;2023-05-29T15:51:37;22.40;1.00
28947;DHT22;16052;50.930;5.326;2023-05-29T15:54:06;22.40;1.00
28947;DHT22;16052;50.930;5.326;2023-05-29T15:56:32;22.40;99.90
28947;DHT22;16052;50.930;5.326;2023-05-29T15:58:58;22.40;99.90
28947;DHT22;16052;50.930;5.326;2023-05-29T16:01:23;22.30;99.90
28947;DHT22;16052;50.930;5.326;2023-05-29T16:03:49;22.30;99.90
28947;DHT22;16052;50.930;5.326;2023-05-29T16:06:15;22.40;99.90
28947;DHT22;16052;50.930;5.326;2023-05-29T16:08:41;22.30;99.90
28947;DHT22;16052;50.930;5.326;2023-05-29T16:11:07;22.40;99.90
28947;DHT22;16052;50.930;5.326;2023-05-29T16:13:33;22.40;99.90
28947;DHT22;16052;50.930;5.326;2023-05-29T16:16:00;22.30;99.90
28947;DHT22;16052;50.930;5.326;2023-05-29T16:18:27;22.20;99.90
28947;DHT22;16052;50.930;5.326;2023-05-29T16:20:53;22.20;1.00
28947;DHT22;16052;50.930;5.326;2023-05-29T16:23:19;22.20;99.90
28947;DHT22;16052;50.930;5.326;2023-05-29T16:25:45;22.30;99.90
28947;DHT22;16052;50.930;5.326;2023-05-29T16:28:11;22.30;99.90
28947;DHT22;16052;50.930;5.326;2023-05-29T16:30:38;22.20;99.90
28947;DHT22;16052;50.930;5.326;2023-05-29T16:33:05;22.30;99.90
28947;DHT22;16052;50.930;5.326;2023-05-29T16:35:32;22.30;99.90
28947;DHT22;16052;50.930;5.326;2023-05-29T16:37:58;22.30;99.90
28947;DHT22;16052;50.930;5.326;2023-05-29T16:40:24;22.40;55.20
28947;DHT22;16052;50.930;5.326;2023-05-29T16:42:50;22.50;30.50
28947;DHT22;16052;50.930;5.326;2023-05-29T16:45:16;22.40;1.00
28947;DHT22;16052;50.930;5.326;2023-05-29T16:47:42;22.50;1.00
28947;DHT22;16052;50.930;5.326;2023-05-29T16:50:08;22.60;99.90
28947;DHT22;16052;50.930;5.326;2023-05-29T16:52:34;22.60;1.00
28947;DHT22;16052;50.930;5.326;2023-05-29T16:55:00;22.50;1.00
28947;DHT22;16052;50.930;5.326;2023-05-29T16:57:30;22.50;99.90
28947;DHT22;16052;50.930;5.326;2023-05-29T16:59:55;22.40;53.10
28947;DHT22;16052;50.930;5.326;2023-05-29T17:02:21;22.40;99.90
28947;DHT22;16052;50.930;5.326;2023-05-29T17:04:47;22.40;99.90
28947;DHT22;16052;50.930;5.326;2023-05-29T17:07:12;22.40;99.90
28947;DHT22;16052;50.930;5.326;2023-05-29T17:09:38;22.50;1.00
28947;DHT22;16052;50.930;5.326;2023-05-29T17:12:04;22.40;99.90
28947;DHT22;16052;50.930;5.326;2023-05-29T17:14:30;22.30;99.90
28947;DHT22;16052;50.930;5.326;2023-05-29T17:16:56;22.30;99.90
28947;DHT22;16052;50.930;5.326;2023-05-29T17:19:23;22.30;62.90
28947;DHT22;16052;50.930;5.326;2023-05-29T17:21:49;22.30;1.00
28947;DHT22;16052;50.930;5.326;2023-05-29T17:24:16;22.20;1.00
28947;DHT22;16052;50.930;5.326;2023-05-29T17:26:42;22.30;1.00
28947;DHT22;16052;50.930;5.326;2023-05-29T17:29:08;22.30;1.00
28947;DHT22;16052;50.930;5.326;2023-05-29T17:31:33;22.10;1.00
28947;DHT22;16052;50.930;5.326;2023-05-29T17:33:59;21.90;99.90